sensor_id;sensor_type;location;lat;lon;timestamp;P1;durP1;ratioP1;P2;durP2;ratioP2
17618;SDS011;8928;51.678;6.074;2023-08-01T00:00:45;10.97;;;5.70;;
17618;SDS011;8928;51.678;6.074;2023-08-01T00:03:32;14.80;;;6.33;;
17618;SDS011;8928;51.678;6.074;2023-08-01T00:06:21;11.33;;;5.97;;
17618;SDS011;8928;51.678;6.074;2023-08-01T00:09:09;14.50;;;6.03;;
17618;SDS011;8928;51.678;6.074;2023-08-01T00:11:56;17.93;;;6.50;;
17618;SDS011;8928;51.678;6.074;2023-08-01T00:14:43;12.43;;;5.70;;
17618;SDS011;8928;51.678;6.074;2023-08-01T00:17:31;13.90;;;6.20;;
17618;SDS011;8928;51.678;6.074;2023-08-01T00:20:18;15.57;;;6.50;;
17618;SDS011;8928;51.678;6.074;2023-08-01T00:23:06;15.47;;;6.03;;
17618;SDS011;8928;51.678;6.074;2023-08-01T00:25:53;13.63;;;6.40;;
17618;SDS011;8928;51.678;6.074;2023-08-01T00:28:40;13.47;;;7.00;;
17618;SDS011;8928;51.678;6.074;2023-08-01T00:31:27;15.83;;;7.20;;
17618;SDS011;8928;51.678;6.074;2023-08-01T00:34:14;13.27;;;7.13;;
17618;SDS011;8928;51.678;6.074;2023-08-01T00:37:01;15.43;;;7.70;;
17618;SDS011;8928;51.678;6.074;2023-08-01T00:39:50;18.83;;;7.90;;
17618;SDS011;8928;51.678;6.074;2023-08-01T00:42:37;22.80;;;8.83;;
17618;SDS011;8928;51.678;6.074;2023-08-01T00:45:24;19.83;;;9.57;;
17618;SDS011;8928;51.678;6.074;2023-08-01T00:48:12;23.40;;;9.70;;
17618;SDS011;8928;51.678;6.074;2023-08-01T00:50:59;24.97;;;10.20;;
17618;SDS011;8928;51.678;6.074;2023-08-01T00:53:49;29.90;;;10.90;;
17618;SDS011;8928;51.678;6.074;2023-08-01T00:56:39;23.13;;;11.00;;
17618;SDS011;8928;51.678;6.074;2023-08-01T00:59:26;25.27;;;11.00;;
17618;SDS011;8928;51.678;6.074;2023-08-01T01:02:13;24.93;;;11.63;;
17618;SDS011;8928;51.678;6.074;2023-08-01T01:05:00;26.53;;;11.53;;
17618;SDS011;8928;51.678;6.074;2023-08-01T01:07:48;29.43;;;12.37;;
17618;SDS011;8928;51.678;6.074;2023-08-01T01:10:35;29.00;;;11.77;;
17618;SDS011;8928;51.678;6.074;2023-08-01T01:13:23;31.53;;;12.97;;
17618;SDS011;8928;51.678;6.074;2023-08-01T01:16:10;27.17;;;12.83;;
17618;SDS011;8928;51.678;6.074;2023-08-01T01:18:57;26.00;;;11.90;;
17618;SDS011;8928;51.678;6.074;2023-08-01T01:25:04;33.60;;;13.17;;
17618;SDS011;8928;51.678;6.074;2023-08-01T01:27:53;28.20;;;13.00;;
17618;SDS011;8928;51.678;6.074;2023-08-01T01:30:41;29.03;;;12.40;;
17618;SDS011;8928;51.678;6.074;2023-08-01T01:33:29;33.27;;;13.07;;
17618;SDS011;8928;51.678;6.074;2023-08-01T01:36:16;27.93;;;13.50;;
17618;SDS011;8928;51.678;6.074;2023-08-01T01:39:04;30.00;;;13.40;;
17618;SDS011;8928;51.678;6.074;2023-08-01T01:41:51;34.13;;;13.90;;
17618;SDS011;8928;51.678;6.074;2023-08-01T01:44:38;31.50;;;13.83;;
17618;SDS011;8928;51.678;6.074;2023-08-01T01:47:25;36.43;;;14.67;;
17618;SDS011;8928;51.678;6.074;2023-08-01T01:50:12;35.70;;;15.23;;
17618;SDS011;8928;51.678;6.074;2023-08-01T01:53:00;42.03;;;15.60;;
17618;SDS011;8928;51.678;6.074;2023-08-01T01:55:48;38.83;;;15.97;;
17618;SDS011;8928;51.678;6.074;2023-08-01T01:58:35;39.53;;;15.83;;
17618;SDS011;8928;51.678;6.074;2023-08-01T02:01:22;40.87;;;15.90;;
17618;SDS011;8928;51.678;6.074;2023-08-01T02:04:09;40.80;;;16.67;;
17618;SDS011;8928;51.678;6.074;2023-08-01T02:06:56;34.17;;;15.13;;
17618;SDS011;8928;51.678;6.074;2023-08-01T02:09:43;36.33;;;15.80;;
17618;SDS011;8928;51.678;6.074;2023-08-01T02:12:32;36.20;;;16.00;;
17618;SDS011;8928;51.678;6.074;2023-08-01T02:15:21;39.90;;;15.07;;
17618;SDS011;8928;51.678;6.074;2023-08-01T02:18:08;36.63;;;15.70;;
17618;SDS011;8928;51.678;6.074;2023-08-01T02:20:55;39.17;;;15.60;;
17618;SDS011;8928;51.678;6.074;2023-08-01T02:23:42;32.73;;;15.07;;
17618;SDS011;8928;51.678;6.074;2023-08-01T02:26:29;36.27;;;14.70;;
17618;SDS011;8928;51.678;6.074;2023-08-01T02:29:18;38.17;;;14.80;;
17618;SDS011;8928;51.678;6.074;2023-08-01T02:32:05;33.97;;;14.10;;
17618;SDS011;8928;51.678;6.074;2023-08-01T02:34:53;37.47;;;13.73;;
17618;SDS011;8928;51.678;6.074;2023-08-01T02:37:40;35.97;;;13.90;;
17618;SDS011;8928;51.678;6.074;2023-08-01T02:40:27;31.63;;;13.60;;
17618;SDS011;8928;51.678;6.074;2023-08-01T02:43:14;41.53;;;13.97;;
17618;SDS011;8928;51.678;6.074;2023-08-01T02:46:02;37.17;;;13.33;;
17618;SDS011;8928;51.678;6.074;2023-08-01T02:48:50;39.67;;;13.70;;
17618;SDS011;8928;51.678;6.074;2023-08-01T02:51:38;34.93;;;13.10;;
17618;SDS011;8928;51.678;6.074;2023-08-01T02:54:25;36.83;;;13.57;;
17618;SDS011;8928;51.678;6.074;2023-08-01T02:57:12;42.70;;;14.03;;
17618;SDS011;8928;51.678;6.074;2023-08-01T02:59:59;40.27;;;13.57;;
17618;SDS011;8928;51.678;6.074;2023-08-01T03:02:51;42.30;;;14.07;;
17618;SDS011;8928;51.678;6.074;2023-08-01T03:05:38;33.33;;;12.83;;
17618;SDS011;8928;51.678;6.074;2023-08-01T03:08:25;36.33;;;13.53;;
17618;SDS011;8928;51.678;6.074;2023-08-01T03:11:12;38.90;;;14.10;;
17618;SDS011;8928;51.678;6.074;2023-08-01T03:13:59;40.40;;;13.97;;
17618;SDS011;8928;51.678;6.074;2023-08-01T03:16:46;35.83;;;14.07;;
17618;SDS011;8928;51.678;6.074;2023-08-01T03:19:34;32.67;;;12.67;;
17618;SDS011;8928;51.678;6.074;2023-08-01T03:22:22;38.30;;;14.00;;
17618;SDS011;8928;51.678;6.074;2023-08-01T03:25:09;36.93;;;14.83;;
17618;SDS011;8928;51.678;6.074;2023-08-01T03:27:56;41.73;;;14.27;;
17618;SDS011;8928;51.678;6.074;2023-08-01T03:30:43;35.90;;;14.37;;
17618;SDS011;8928;51.678;6.074;2023-08-01T03:33:32;40.87;;;14.90;;
17618;SDS011;8928;51.678;6.074;2023-08-01T03:36:20;34.10;;;14.83;;
17618;SDS011;8928;51.678;6.074;2023-08-01T03:39:07;39.03;;;15.03;;
17618;SDS011;8928;51.678;6.074;2023-08-01T03:41:55;37.73;;;15.50;;
17618;SDS011;8928;51.678;6.074;2023-08-01T03:44:42;42.07;;;15.77;;
17618;SDS011;8928;51.678;6.074;2023-08-01T03:47:29;42.80;;;16.37;;
17618;SDS011;8928;51.678;6.074;2023-08-01T03:50:16;34.27;;;16.10;;
17618;SDS011;8928;51.678;6.074;2023-08-01T03:53:04;38.43;;;16.90;;
17618;SDS011;8928;51.678;6.074;2023-08-01T03:55:52;40.90;;;17.30;;
17618;SDS011;8928;51.678;6.074;2023-08-01T03:58:39;44.00;;;17.13;;
17618;SDS011;8928;51.678;6.074;2023-08-01T04:01:26;45.40;;;17.70;;
17618;SDS011;8928;51.678;6.074;2023-08-01T04:04:13;44.03;;;19.00;;
17618;SDS011;8928;51.678;6.074;2023-08-01T04:07:00;46.57;;;18.87;;
17618;SDS011;8928;51.678;6.074;2023-08-01T04:09:49;58.23;;;19.50;;
17618;SDS011;8928;51.678;6.074;2023-08-01T04:12:36;51.83;;;20.53;;
17618;SDS011;8928;51.678;6.074;2023-08-01T04:15:23;58.17;;;20.90;;
17618;SDS011;8928;51.678;6.074;2023-08-01T04:18:10;52.63;;;19.57;;
17618;SDS011;8928;51.678;6.074;2023-08-01T04:20:57;48.87;;;19.80;;
17618;SDS011;8928;51.678;6.074;2023-08-01T04:23:44;47.60;;;19.93;;
17618;SDS011;8928;51.678;6.074;2023-08-01T04:26:32;48.83;;;20.03;;
17618;SDS011;8928;51.678;6.074;2023-08-01T04:29:19;50.43;;;19.50;;
17618;SDS011;8928;51.678;6.074;2023-08-01T04:32:07;50.03;;;19.47;;
17618;SDS011;8928;51.678;6.074;2023-08-01T04:34:56;50.57;;;20.70;;
17618;SDS011;8928;51.678;6.074;2023-08-01T04:37:43;52.20;;;19.63;;
17618;SDS011;8928;51.678;6.074;2023-08-01T04:40:30;49.37;;;20.90;;
17618;SDS011;8928;51.678;6.074;2023-08-01T04:43:18;43.77;;;19.63;;
17618;SDS011;8928;51.678;6.074;2023-08-01T04:46:05;53.53;;;20.17;;
17618;SDS011;8928;51.678;6.074;2023-08-01T04:48:52;51.67;;;21.03;;
17618;SDS011;8928;51.678;6.074;2023-08-01T04:51:39;46.63;;;19.80;;
17618;SDS011;8928;51.678;6.074;2023-08-01T04:54:27;47.53;;;20.10;;
17618;SDS011;8928;51.678;6.074;2023-08-01T04:57:14;49.90;;;20.17;;
17618;SDS011;8928;51.678;6.074;2023-08-01T05:00:02;45.77;;;19.40;;
17618;SDS011;8928;51.678;6.074;2023-08-01T05:02:49;50.00;;;19.97;;
17618;SDS011;8928;51.678;6.074;2023-08-01T05:05:37;51.23;;;20.57;;
17618;SDS011;8928;51.678;6.074;2023-08-01T05:08:24;55.57;;;19.97;;
17618;SDS011;8928;51.678;6.074;2023-08-01T05:11:11;49.33;;;18.97;;
17618;SDS011;8928;51.678;6.074;2023-08-01T05:13:58;42.50;;;19.13;;
17618;SDS011;8928;51.678;6.074;2023-08-01T05:16:46;46.87;;;20.17;;
17618;SDS011;8928;51.678;6.074;2023-08-01T05:19:33;40.93;;;19.93;;
17618;SDS011;8928;51.678;6.074;2023-08-01T05:22:20;50.67;;;20.10;;
17618;SDS011;8928;51.678;6.074;2023-08-01T05:25:07;48.07;;;19.60;;
17618;SDS011;8928;51.678;6.074;2023-08-01T05:27:55;41.70;;;19.83;;
17618;SDS011;8928;51.678;6.074;2023-08-01T05:30:42;42.07;;;19.47;;
17618;SDS011;8928;51.678;6.074;2023-08-01T05:33:30;42.47;;;19.40;;
17618;SDS011;8928;51.678;6.074;2023-08-01T05:36:17;39.50;;;18.33;;
17618;SDS011;8928;51.678;6.074;2023-08-01T05:39:04;49.53;;;19.53;;
17618;SDS011;8928;51.678;6.074;2023-08-01T05:41:51;42.50;;;19.37;;
17618;SDS011;8928;51.678;6.074;2023-08-01T05:44:41;47.03;;;19.80;;
17618;SDS011;8928;51.678;6.074;2023-08-01T05:47:28;43.03;;;19.43;;
17618;SDS011;8928;51.678;6.074;2023-08-01T05:50:16;42.73;;;19.57;;
17618;SDS011;8928;51.678;6.074;2023-08-01T05:53:03;41.50;;;19.80;;
17618;SDS011;8928;51.678;6.074;2023-08-01T05:55:51;48.40;;;20.47;;
17618;SDS011;8928;51.678;6.074;2023-08-01T05:58:38;43.97;;;19.30;;
17618;SDS011;8928;51.678;6.074;2023-08-01T06:01:26;39.63;;;18.23;;
17618;SDS011;8928;51.678;6.074;2023-08-01T06:04:13;39.67;;;18.47;;
17618;SDS011;8928;51.678;6.074;2023-08-01T06:07:02;39.13;;;17.93;;
17618;SDS011;8928;51.678;6.074;2023-08-01T06:09:50;36.60;;;17.50;;
17618;SDS011;8928;51.678;6.074;2023-08-01T06:12:37;39.90;;;17.93;;
17618;SDS011;8928;51.678;6.074;2023-08-01T06:15:24;36.93;;;18.67;;
17618;SDS011;8928;51.678;6.074;2023-08-01T06:18:11;39.40;;;17.67;;
17618;SDS011;8928;51.678;6.074;2023-08-01T06:20:59;36.50;;;18.13;;
17618;SDS011;8928;51.678;6.074;2023-08-01T06:23:48;37.07;;;17.30;;
17618;SDS011;8928;51.678;6.074;2023-08-01T06:26:35;31.90;;;16.37;;
17618;SDS011;8928;51.678;6.074;2023-08-01T06:29:22;32.17;;;15.87;;
17618;SDS011;8928;51.678;6.074;2023-08-01T06:32:10;32.77;;;16.23;;
17618;SDS011;8928;51.678;6.074;2023-08-01T06:34:57;31.63;;;16.10;;
17618;SDS011;8928;51.678;6.074;2023-08-01T06:37:44;37.90;;;15.63;;
17618;SDS011;8928;51.678;6.074;2023-08-01T06:40:33;30.60;;;15.73;;
17618;SDS011;8928;51.678;6.074;2023-08-01T06:43:20;29.73;;;15.73;;
17618;SDS011;8928;51.678;6.074;2023-08-01T06:46:07;28.97;;;14.40;;
17618;SDS011;8928;51.678;6.074;2023-08-01T06:48:55;27.23;;;14.07;;
17618;SDS011;8928;51.678;6.074;2023-08-01T06:51:42;26.37;;;13.40;;
17618;SDS011;8928;51.678;6.074;2023-08-01T06:54:29;32.27;;;13.97;;
17618;SDS011;8928;51.678;6.074;2023-08-01T06:57:19;31.03;;;12.73;;
17618;SDS011;8928;51.678;6.074;2023-08-01T07:00:08;30.47;;;12.17;;
17618;SDS011;8928;51.678;6.074;2023-08-01T07:02:56;31.60;;;11.87;;
17618;SDS011;8928;51.678;6.074;2023-08-01T07:05:43;29.83;;;11.17;;
17618;SDS011;8928;51.678;6.074;2023-08-01T07:08:30;26.77;;;10.73;;
17618;SDS011;8928;51.678;6.074;2023-08-01T07:11:17;26.43;;;10.80;;
17618;SDS011;8928;51.678;6.074;2023-08-01T07:14:06;28.37;;;11.47;;
17618;SDS011;8928;51.678;6.074;2023-08-01T07:16:53;23.65;;;10.48;;
17618;SDS011;8928;51.678;6.074;2023-08-01T07:19:40;22.58;;;9.95;;
17618;SDS011;8928;51.678;6.074;2023-08-01T07:22:28;21.27;;;9.82;;
17618;SDS011;8928;51.678;6.074;2023-08-01T07:25:15;21.30;;;9.43;;
17618;SDS011;8928;51.678;6.074;2023-08-01T07:28:02;19.55;;;8.95;;
17618;SDS011;8928;51.678;6.074;2023-08-01T07:30:58;20.20;;;9.50;;
17618;SDS011;8928;51.678;6.074;2023-08-01T07:33:46;21.27;;;9.15;;
17618;SDS011;8928;51.678;6.074;2023-08-01T07:36:33;20.98;;;7.95;;
17618;SDS011;8928;51.678;6.074;2023-08-01T07:39:20;22.67;;;8.30;;
17618;SDS011;8928;51.678;6.074;2023-08-01T07:42:07;17.95;;;8.32;;
17618;SDS011;8928;51.678;6.074;2023-08-01T07:44:55;13.18;;;6.90;;
17618;SDS011;8928;51.678;6.074;2023-08-01T07:47:43;16.38;;;6.68;;
17618;SDS011;8928;51.678;6.074;2023-08-01T07:50:30;17.70;;;6.10;;
17618;SDS011;8928;51.678;6.074;2023-08-01T07:53:17;15.23;;;6.57;;
17618;SDS011;8928;51.678;6.074;2023-08-01T07:56:04;16.42;;;6.35;;
17618;SDS011;8928;51.678;6.074;2023-08-01T07:58:54;16.67;;;6.28;;
17618;SDS011;8928;51.678;6.074;2023-08-01T08:01:41;15.85;;;5.78;;
17618;SDS011;8928;51.678;6.074;2023-08-01T08:04:29;15.02;;;5.53;;
17618;SDS011;8928;51.678;6.074;2023-08-01T08:07:16;14.23;;;5.60;;
17618;SDS011;8928;51.678;6.074;2023-08-01T08:10:04;15.73;;;5.35;;
17618;SDS011;8928;51.678;6.074;2023-08-01T08:12:52;17.77;;;5.20;;
17618;SDS011;8928;51.678;6.074;2023-08-01T08:15:39;15.77;;;5.35;;
17618;SDS011;8928;51.678;6.074;2023-08-01T08:18:26;13.32;;;5.25;;
17618;SDS011;8928;51.678;6.074;2023-08-01T08:21:14;12.02;;;4.32;;
17618;SDS011;8928;51.678;6.074;2023-08-01T08:24:01;9.93;;;4.38;;
17618;SDS011;8928;51.678;6.074;2023-08-01T08:26:48;10.88;;;4.57;;
17618;SDS011;8928;51.678;6.074;2023-08-01T08:29:35;18.15;;;5.30;;
17618;SDS011;8928;51.678;6.074;2023-08-01T08:32:23;16.67;;;6.43;;
17618;SDS011;8928;51.678;6.074;2023-08-01T08:35:10;17.50;;;6.23;;
17618;SDS011;8928;51.678;6.074;2023-08-01T08:37:59;16.08;;;6.97;;
17618;SDS011;8928;51.678;6.074;2023-08-01T08:40:52;23.17;;;7.53;;
17618;SDS011;8928;51.678;6.074;2023-08-01T08:43:45;19.83;;;7.03;;
17618;SDS011;8928;51.678;6.074;2023-08-01T08:46:36;18.97;;;7.60;;
17618;SDS011;8928;51.678;6.074;2023-08-01T08:49:27;21.67;;;7.43;;
17618;SDS011;8928;51.678;6.074;2023-08-01T08:52:15;16.97;;;7.33;;
17618;SDS011;8928;51.678;6.074;2023-08-01T08:55:04;20.47;;;6.90;;
17618;SDS011;8928;51.678;6.074;2023-08-01T08:57:51;21.87;;;7.47;;
17618;SDS011;8928;51.678;6.074;2023-08-01T09:00:39;19.73;;;8.10;;
17618;SDS011;8928;51.678;6.074;2023-08-01T09:03:27;18.90;;;8.33;;
17618;SDS011;8928;51.678;6.074;2023-08-01T09:06:15;28.70;;;8.57;;
17618;SDS011;8928;51.678;6.074;2023-08-01T09:09:04;20.97;;;7.30;;
17618;SDS011;8928;51.678;6.074;2023-08-01T09:11:57;26.43;;;5.40;;
17618;SDS011;8928;51.678;6.074;2023-08-01T09:14:45;15.23;;;2.90;;
17618;SDS011;8928;51.678;6.074;2023-08-01T09:17:34;9.47;;;3.20;;
17618;SDS011;8928;51.678;6.074;2023-08-01T09:20:21;10.00;;;3.83;;
17618;SDS011;8928;51.678;6.074;2023-08-01T09:23:09;13.10;;;4.67;;
17618;SDS011;8928;51.678;6.074;2023-08-01T09:25:56;15.87;;;6.13;;
17618;SDS011;8928;51.678;6.074;2023-08-01T09:28:45;18.20;;;6.80;;
17618;SDS011;8928;51.678;6.074;2023-08-01T09:31:42;19.10;;;7.43;;
17618;SDS011;8928;51.678;6.074;2023-08-01T09:34:29;13.90;;;6.60;;
17618;SDS011;8928;51.678;6.074;2023-08-01T09:37:16;18.10;;;6.27;;
17618;SDS011;8928;51.678;6.074;2023-08-01T09:40:04;13.23;;;4.83;;
17618;SDS011;8928;51.678;6.074;2023-08-01T09:42:51;7.87;;;3.70;;
17618;SDS011;8928;51.678;6.074;2023-08-01T09:45:50;9.30;;;3.00;;
17618;SDS011;8928;51.678;6.074;2023-08-01T09:48:40;10.23;;;3.10;;
17618;SDS011;8928;51.678;6.074;2023-08-01T09:51:28;11.27;;;3.50;;
17618;SDS011;8928;51.678;6.074;2023-08-01T09:54:16;10.47;;;3.33;;
17618;SDS011;8928;51.678;6.074;2023-08-01T09:57:03;9.50;;;3.50;;
17618;SDS011;8928;51.678;6.074;2023-08-01T09:59:52;12.60;;;3.83;;
17618;SDS011;8928;51.678;6.074;2023-08-01T10:02:41;11.60;;;4.40;;
17618;SDS011;8928;51.678;6.074;2023-08-01T10:05:31;11.77;;;4.70;;
17618;SDS011;8928;51.678;6.074;2023-08-01T10:08:20;10.30;;;4.30;;
17618;SDS011;8928;51.678;6.074;2023-08-01T10:11:08;10.73;;;4.13;;
17618;SDS011;8928;51.678;6.074;2023-08-01T10:13:55;14.23;;;4.20;;
17618;SDS011;8928;51.678;6.074;2023-08-01T10:16:42;14.50;;;4.27;;
17618;SDS011;8928;51.678;6.074;2023-08-01T10:19:32;13.77;;;3.97;;
17618;SDS011;8928;51.678;6.074;2023-08-01T10:22:19;10.02;;;3.65;;
17618;SDS011;8928;51.678;6.074;2023-08-01T10:25:07;11.80;;;3.40;;
17618;SDS011;8928;51.678;6.074;2023-08-01T10:27:59;9.63;;;3.30;;
17618;SDS011;8928;51.678;6.074;2023-08-01T10:30:47;11.27;;;3.13;;
17618;SDS011;8928;51.678;6.074;2023-08-01T10:33:34;10.68;;;3.70;;
17618;SDS011;8928;51.678;6.074;2023-08-01T10:36:23;12.75;;;3.80;;
17618;SDS011;8928;51.678;6.074;2023-08-01T10:39:20;10.85;;;3.38;;
17618;SDS011;8928;51.678;6.074;2023-08-01T10:42:08;8.38;;;2.78;;
17618;SDS011;8928;51.678;6.074;2023-08-01T10:44:57;14.82;;;3.13;;
17618;SDS011;8928;51.678;6.074;2023-08-01T10:47:44;7.75;;;2.75;;
17618;SDS011;8928;51.678;6.074;2023-08-01T10:50:31;9.63;;;2.92;;
17618;SDS011;8928;51.678;6.074;2023-08-01T10:53:20;10.27;;;3.10;;
17618;SDS011;8928;51.678;6.074;2023-08-01T10:56:07;13.25;;;3.63;;
17618;SDS011;8928;51.678;6.074;2023-08-01T10:58:54;11.52;;;2.90;;
17618;SDS011;8928;51.678;6.074;2023-08-01T11:01:45;11.30;;;2.90;;
17618;SDS011;8928;51.678;6.074;2023-08-01T11:04:33;11.75;;;2.60;;
17618;SDS011;8928;51.678;6.074;2023-08-01T11:07:20;9.15;;;2.33;;
17618;SDS011;8928;51.678;6.074;2023-08-01T11:10:10;10.60;;;2.60;;
17618;SDS011;8928;51.678;6.074;2023-08-01T11:12:58;9.57;;;2.30;;
17618;SDS011;8928;51.678;6.074;2023-08-01T11:15:45;11.38;;;2.85;;
17618;SDS011;8928;51.678;6.074;2023-08-01T11:18:40;11.68;;;2.83;;
17618;SDS011;8928;51.678;6.074;2023-08-01T11:21:28;8.65;;;2.65;;
17618;SDS011;8928;51.678;6.074;2023-08-01T11:24:15;8.93;;;2.85;;
17618;SDS011;8928;51.678;6.074;2023-08-01T11:27:04;14.73;;;2.97;;
17618;SDS011;8928;51.678;6.074;2023-08-01T11:29:53;11.75;;;2.80;;
17618;SDS011;8928;51.678;6.074;2023-08-01T11:32:40;11.65;;;3.22;;
17618;SDS011;8928;51.678;6.074;2023-08-01T11:35:27;13.15;;;2.92;;
17618;SDS011;8928;51.678;6.074;2023-08-01T11:38:14;10.35;;;3.03;;
17618;SDS011;8928;51.678;6.074;2023-08-01T11:41:02;9.73;;;3.13;;
17618;SDS011;8928;51.678;6.074;2023-08-01T11:43:51;10.50;;;3.17;;
17618;SDS011;8928;51.678;6.074;2023-08-01T11:46:40;7.03;;;2.63;;
17618;SDS011;8928;51.678;6.074;2023-08-01T11:49:27;7.10;;;2.45;;
17618;SDS011;8928;51.678;6.074;2023-08-01T11:52:24;10.75;;;2.42;;
17618;SDS011;8928;51.678;6.074;2023-08-01T11:55:17;12.55;;;2.65;;
17618;SDS011;8928;51.678;6.074;2023-08-01T11:58:05;7.40;;;2.30;;
17618;SDS011;8928;51.678;6.074;2023-08-01T12:01:01;13.82;;;2.42;;
17618;SDS011;8928;51.678;6.074;2023-08-01T12:03:50;10.40;;;2.33;;
17618;SDS011;8928;51.678;6.074;2023-08-01T12:06:38;8.88;;;2.28;;
17618;SDS011;8928;51.678;6.074;2023-08-01T12:09:26;9.38;;;2.55;;
17618;SDS011;8928;51.678;6.074;2023-08-01T12:12:17;13.55;;;2.85;;
17618;SDS011;8928;51.678;6.074;2023-08-01T12:15:05;9.23;;;2.00;;
17618;SDS011;8928;51.678;6.074;2023-08-01T12:17:54;5.43;;;2.15;;
17618;SDS011;8928;51.678;6.074;2023-08-01T12:20:41;8.60;;;1.90;;
17618;SDS011;8928;51.678;6.074;2023-08-01T12:23:28;7.75;;;2.13;;
17618;SDS011;8928;51.678;6.074;2023-08-01T12:26:15;7.53;;;2.20;;
17618;SDS011;8928;51.678;6.074;2023-08-01T12:29:02;7.53;;;2.20;;
17618;SDS011;8928;51.678;6.074;2023-08-01T12:31:49;11.25;;;2.30;;
17618;SDS011;8928;51.678;6.074;2023-08-01T12:34:37;11.55;;;2.22;;
17618;SDS011;8928;51.678;6.074;2023-08-01T12:37:24;11.95;;;2.40;;
17618;SDS011;8928;51.678;6.074;2023-08-01T12:40:11;14.25;;;2.72;;
17618;SDS011;8928;51.678;6.074;2023-08-01T12:42:58;12.13;;;2.85;;
17618;SDS011;8928;51.678;6.074;2023-08-01T12:45:46;9.13;;;2.83;;
17618;SDS011;8928;51.678;6.074;2023-08-01T12:48:33;9.18;;;2.60;;
17618;SDS011;8928;51.678;6.074;2023-08-01T12:51:21;7.70;;;2.40;;
17618;SDS011;8928;51.678;6.074;2023-08-01T12:54:08;8.50;;;1.98;;
17618;SDS011;8928;51.678;6.074;2023-08-01T12:56:56;8.73;;;2.20;;
17618;SDS011;8928;51.678;6.074;2023-08-01T12:59:43;11.38;;;2.20;;
17618;SDS011;8928;51.678;6.074;2023-08-01T13:02:30;8.48;;;1.98;;
17618;SDS011;8928;51.678;6.074;2023-08-01T13:05:17;9.50;;;2.00;;
17618;SDS011;8928;51.678;6.074;2023-08-01T13:08:06;7.22;;;1.83;;
17618;SDS011;8928;51.678;6.074;2023-08-01T13:10:53;8.98;;;1.92;;
17618;SDS011;8928;51.678;6.074;2023-08-01T13:13:41;10.02;;;1.92;;
17618;SDS011;8928;51.678;6.074;2023-08-01T13:16:28;7.78;;;1.90;;
17618;SDS011;8928;51.678;6.074;2023-08-01T13:19:16;5.78;;;1.70;;
17618;SDS011;8928;51.678;6.074;2023-08-01T13:22:04;7.03;;;1.98;;
17618;SDS011;8928;51.678;6.074;2023-08-01T13:24:53;5.63;;;1.80;;
17618;SDS011;8928;51.678;6.074;2023-08-01T13:27:40;9.15;;;1.90;;
17618;SDS011;8928;51.678;6.074;2023-08-01T13:30:27;5.93;;;1.75;;
17618;SDS011;8928;51.678;6.074;2023-08-01T13:33:14;8.77;;;2.03;;
17618;SDS011;8928;51.678;6.074;2023-08-01T13:36:01;8.00;;;2.00;;
17618;SDS011;8928;51.678;6.074;2023-08-01T13:38:48;8.77;;;1.95;;
17618;SDS011;8928;51.678;6.074;2023-08-01T13:41:36;6.82;;;2.00;;
17618;SDS011;8928;51.678;6.074;2023-08-01T13:44:23;7.18;;;1.60;;
17618;SDS011;8928;51.678;6.074;2023-08-01T13:47:10;10.05;;;2.13;;
17618;SDS011;8928;51.678;6.074;2023-08-01T13:49:57;8.38;;;1.90;;
17618;SDS011;8928;51.678;6.074;2023-08-01T13:52:44;6.20;;;1.67;;
17618;SDS011;8928;51.678;6.074;2023-08-01T13:55:32;8.15;;;1.70;;
17618;SDS011;8928;51.678;6.074;2023-08-01T13:58:20;6.35;;;1.60;;
17618;SDS011;8928;51.678;6.074;2023-08-01T14:01:08;7.43;;;1.70;;
17618;SDS011;8928;51.678;6.074;2023-08-01T14:03:56;6.82;;;1.67;;
17618;SDS011;8928;51.678;6.074;2023-08-01T14:06:43;5.97;;;1.73;;
17618;SDS011;8928;51.678;6.074;2023-08-01T14:09:30;7.50;;;1.80;;
17618;SDS011;8928;51.678;6.074;2023-08-01T14:12:17;8.10;;;1.88;;
17618;SDS011;8928;51.678;6.074;2023-08-01T14:15:06;5.10;;;1.52;;
17618;SDS011;8928;51.678;6.074;2023-08-01T14:17:54;5.13;;;1.80;;
17618;SDS011;8928;51.678;6.074;2023-08-01T14:20:41;8.85;;;1.70;;
17618;SDS011;8928;51.678;6.074;2023-08-01T14:23:28;9.13;;;1.88;;
17618;SDS011;8928;51.678;6.074;2023-08-01T14:26:15;8.10;;;1.92;;
17618;SDS011;8928;51.678;6.074;2023-08-01T14:29:02;6.35;;;1.50;;
17618;SDS011;8928;51.678;6.074;2023-08-01T14:31:51;6.65;;;1.67;;
17618;SDS011;8928;51.678;6.074;2023-08-01T14:34:38;6.50;;;1.50;;
17618;SDS011;8928;51.678;6.074;2023-08-01T14:37:25;5.88;;;1.27;;
17618;SDS011;8928;51.678;6.074;2023-08-01T14:40:12;7.07;;;1.25;;
17618;SDS011;8928;51.678;6.074;2023-08-01T14:42:59;5.80;;;1.45;;
17618;SDS011;8928;51.678;6.074;2023-08-01T14:45:46;6.75;;;1.60;;
17618;SDS011;8928;51.678;6.074;2023-08-01T14:48:35;7.20;;;1.65;;
17618;SDS011;8928;51.678;6.074;2023-08-01T14:51:22;5.05;;;1.23;;
17618;SDS011;8928;51.678;6.074;2023-08-01T14:54:09;5.28;;;1.30;;
17618;SDS011;8928;51.678;6.074;2023-08-01T14:56:56;6.70;;;1.30;;
17618;SDS011;8928;51.678;6.074;2023-08-01T14:59:43;7.10;;;1.25;;
17618;SDS011;8928;51.678;6.074;2023-08-01T15:02:30;4.68;;;1.35;;
17618;SDS011;8928;51.678;6.074;2023-08-01T15:05:18;4.78;;;1.20;;
17618;SDS011;8928;51.678;6.074;2023-08-01T15:08:06;5.85;;;1.52;;
17618;SDS011;8928;51.678;6.074;2023-08-01T15:10:53;3.15;;;1.20;;
17618;SDS011;8928;51.678;6.074;2023-08-01T15:13:40;4.75;;;1.20;;
17618;SDS011;8928;51.678;6.074;2023-08-01T15:16:27;8.07;;;1.70;;
17618;SDS011;8928;51.678;6.074;2023-08-01T15:19:14;6.35;;;1.50;;
17618;SDS011;8928;51.678;6.074;2023-08-01T15:22:03;9.23;;;1.60;;
17618;SDS011;8928;51.678;6.074;2023-08-01T15:24:50;5.43;;;1.40;;
17618;SDS011;8928;51.678;6.074;2023-08-01T15:27:37;8.38;;;1.27;;
17618;SDS011;8928;51.678;6.074;2023-08-01T15:30:24;3.63;;;1.20;;
17618;SDS011;8928;51.678;6.074;2023-08-01T15:33:11;6.53;;;1.20;;
17618;SDS011;8928;51.678;6.074;2023-08-01T15:35:59;7.18;;;1.13;;
17618;SDS011;8928;51.678;6.074;2023-08-01T15:38:48;5.45;;;1.40;;
17618;SDS011;8928;51.678;6.074;2023-08-01T15:41:36;5.68;;;1.30;;
17618;SDS011;8928;51.678;6.074;2023-08-01T15:44:23;9.18;;;1.58;;
17618;SDS011;8928;51.678;6.074;2023-08-01T15:47:10;3.90;;;1.20;;
17618;SDS011;8928;51.678;6.074;2023-08-01T15:49:57;6.63;;;1.33;;
17618;SDS011;8928;51.678;6.074;2023-08-01T15:52:44;4.80;;;1.20;;
17618;SDS011;8928;51.678;6.074;2023-08-01T15:55:32;5.65;;;1.20;;
17618;SDS011;8928;51.678;6.074;2023-08-01T15:58:19;9.68;;;1.40;;
17618;SDS011;8928;51.678;6.074;2023-08-01T16:01:07;4.55;;;1.20;;
17618;SDS011;8928;51.678;6.074;2023-08-01T16:03:54;3.42;;;1.13;;
17618;SDS011;8928;51.678;6.074;2023-08-01T16:06:41;4.22;;;1.10;;
17618;SDS011;8928;51.678;6.074;2023-08-01T16:09:28;5.25;;;1.17;;
17618;SDS011;8928;51.678;6.074;2023-08-01T16:12:17;5.78;;;1.20;;
17618;SDS011;8928;51.678;6.074;2023-08-01T16:15:04;6.68;;;1.20;;
17618;SDS011;8928;51.678;6.074;2023-08-01T16:17:52;5.53;;;1.25;;
17618;SDS011;8928;51.678;6.074;2023-08-01T16:20:39;3.63;;;1.00;;
17618;SDS011;8928;51.678;6.074;2023-08-01T16:23:26;7.28;;;1.30;;
17618;SDS011;8928;51.678;6.074;2023-08-01T16:26:13;6.45;;;1.30;;
17618;SDS011;8928;51.678;6.074;2023-08-01T16:29:01;3.63;;;1.10;;
17618;SDS011;8928;51.678;6.074;2023-08-01T16:31:48;3.90;;;1.20;;
17618;SDS011;8928;51.678;6.074;2023-08-01T16:34:35;7.00;;;1.33;;
17618;SDS011;8928;51.678;6.074;2023-08-01T16:37:22;7.00;;;1.35;;
17618;SDS011;8928;51.678;6.074;2023-08-01T16:40:10;5.93;;;1.33;;
17618;SDS011;8928;51.678;6.074;2023-08-01T16:42:57;4.65;;;1.15;;
17618;SDS011;8928;51.678;6.074;2023-08-01T16:45:46;8.30;;;1.50;;
17618;SDS011;8928;51.678;6.074;2023-08-01T16:48:33;7.20;;;1.27;;
17618;SDS011;8928;51.678;6.074;2023-08-01T16:51:20;4.70;;;1.23;;